createdAt,value
2018-12-04T00:00:37.114Z,69.78
2018-12-04T00:03:07.949Z,69.38
2018-12-04T00:05:37.922Z,69.95
2018-12-04T00:08:07.843Z,70.07
2018-12-04T00:10:38.030Z,70.43
2018-12-04T00:13:08.507Z,70.07
2018-12-04T00:15:38.460Z,69.59
2018-12-04T00:18:08.476Z,69.93
2018-12-04T00:20:38.426Z,69.35
2018-12-04T00:23:08.435Z,69.34
2018-12-04T00:25:38.674Z,67.48
2018-12-04T00:28:08.597Z,67.27
2018-12-04T00:30:38.533Z,66.29
2018-12-04T00:33:08.443Z,66.42
2018-12-04T00:35:38.416Z,65.21
2018-12-04T00:38:08.356Z,65.56
2018-12-04T00:40:38.366Z,64.74
2018-12-04T00:43:08.330Z,64.27
2018-12-04T00:45:38.300Z,64.03
2018-12-04T00:48:08.262Z,64.38
2018-12-04T00:50:38.189Z,63.96
2018-12-04T00:53:11.054Z,64.57
2018-12-04T00:55:41.688Z,64.28
2018-12-04T00:58:11.557Z,64.67
2018-12-04T01:00:41.544Z,63.81
2018-12-04T01:03:11.526Z,63.42
2018-12-04T01:05:41.504Z,63.09
2018-12-04T01:08:11.488Z,62.94
2018-12-04T01:10:41.410Z,62.91
2018-12-04T01:13:11.402Z,62.86
2018-12-04T01:15:41.295Z,62.81
2018-12-04T01:18:11.601Z,63.23
2018-12-04T01:20:41.576Z,63.03
2018-12-04T01:23:11.530Z,63.49
2018-12-04T01:25:41.526Z,63.36
2018-12-04T01:28:11.433Z,63.30
2018-12-04T01:30:41.326Z,63.53
2018-12-04T01:33:11.206Z,63.74
2018-12-04T01:35:41.201Z,64.07
2018-12-04T01:38:11.163Z,63.93
2018-12-04T01:40:41.089Z,64.10
2018-12-04T01:43:11.079Z,63.58
2018-12-04T01:45:41.009Z,64.13
2018-12-04T01:48:10.965Z,64.23
2018-12-04T01:50:40.929Z,64.23
2018-12-04T01:53:10.870Z,64.35
2018-12-04T01:55:40.810Z,63.70
2018-12-04T01:58:10.794Z,64.10
2018-12-04T02:00:40.722Z,64.58
2018-12-04T02:03:10.683Z,64.26
2018-12-04T02:05:40.667Z,64.19
2018-12-04T02:08:10.646Z,64.13
2018-12-04T02:10:40.607Z,64.23
2018-12-04T02:13:10.548Z,64.97
2018-12-04T02:15:40.521Z,64.56
2018-12-04T02:18:11.446Z,64.75
2018-12-04T02:20:41.626Z,64.95
2018-12-04T02:23:11.577Z,65.16
2018-12-04T02:25:41.565Z,65.84
2018-12-04T02:28:11.542Z,66.04
2018-12-04T02:30:41.553Z,65.97
2018-12-04T02:33:11.493Z,66.15
2018-12-04T02:35:41.395Z,66.15
2018-12-04T02:38:11.343Z,66.18
2018-12-04T02:40:41.295Z,65.89
2018-12-04T02:43:11.267Z,66.35
2018-12-04T02:45:41.214Z,65.65
2018-12-04T02:48:11.169Z,65.62
2018-12-04T02:50:41.115Z,65.41
2018-12-04T02:53:11.082Z,65.51
2018-12-04T02:55:41.068Z,65.34
2018-12-04T02:58:10.965Z,65.15
2018-12-04T03:00:41.798Z,65.60
2018-12-04T03:03:11.789Z,65.86
2018-12-04T03:05:41.733Z,65.47
2018-12-04T03:08:11.735Z,65.57
2018-12-04T03:10:41.722Z,66.00
2018-12-04T03:13:11.687Z,65.43
2018-12-04T03:15:41.669Z,65.76
2018-12-04T03:18:11.638Z,65.79
2018-12-04T03:20:41.601Z,65.49
2018-12-04T03:23:11.532Z,65.65
2018-12-04T03:25:41.469Z,65.70
2018-12-04T03:28:11.411Z,65.96
2018-12-04T03:30:41.368Z,66.57
2018-12-04T03:33:11.359Z,66.03
2018-12-04T03:35:41.280Z,66.06
2018-12-04T03:38:11.242Z,66.31
2018-12-04T03:40:41.213Z,66.73
2018-12-04T03:43:11.223Z,66.58
2018-12-04T03:45:41.227Z,66.77
2018-12-04T03:48:11.174Z,66.52
2018-12-04T03:50:41.120Z,67.08
2018-12-04T03:53:11.086Z,66.42
2018-12-04T03:55:41.088Z,66.89
2018-12-04T03:58:11.076Z,66.76
2018-12-04T04:00:41.068Z,66.72
2018-12-04T04:03:11.033Z,66.76
2018-12-04T04:05:40.972Z,66.76
2018-12-04T04:08:10.935Z,66.74
2018-12-04T04:10:40.896Z,67.08
2018-12-04T04:13:10.863Z,67.01
2018-12-04T04:15:40.844Z,67.16
2018-12-04T04:18:10.811Z,67.33
2018-12-04T04:20:40.757Z,67.06
2018-12-04T04:23:10.686Z,67.33
2018-12-04T04:25:40.650Z,67.31
2018-12-04T04:28:10.609Z,67.41
2018-12-04T04:30:40.587Z,67.40
2018-12-04T04:33:10.551Z,67.56
2018-12-04T04:35:40.538Z,67.56
2018-12-04T04:38:10.487Z,67.58
2018-12-04T04:40:40.477Z,67.75
2018-12-04T04:43:10.430Z,68.11
2018-12-04T04:45:40.385Z,67.97
2018-12-04T04:48:10.349Z,67.85
2018-12-04T04:50:40.320Z,67.88
2018-12-04T04:53:10.278Z,68.17
2018-12-04T04:55:40.269Z,68.26
2018-12-04T04:58:10.265Z,67.63
2018-12-04T05:00:40.208Z,68.22
2018-12-04T05:03:10.146Z,67.86
2018-12-04T05:05:41.691Z,67.73
2018-12-04T05:08:11.670Z,67.54
2018-12-04T05:10:41.621Z,67.19
2018-12-04T05:13:11.593Z,67.00
2018-12-04T05:15:41.518Z,67.33
2018-12-04T05:18:11.524Z,67.12
2018-12-04T05:20:41.513Z,67.12
2018-12-04T05:23:11.501Z,67.17
2018-12-04T05:25:41.491Z,67.24
2018-12-04T05:28:11.433Z,66.92
2018-12-04T05:30:41.387Z,67.38
2018-12-04T05:33:11.315Z,66.71
2018-12-04T05:35:41.362Z,66.83
2018-12-04T05:38:11.297Z,66.60
2018-12-04T05:40:41.257Z,66.32
2018-12-04T05:43:11.247Z,66.22
2018-12-04T05:45:41.183Z,66.75
2018-12-04T05:48:11.923Z,66.72
2018-12-04T05:50:41.880Z,66.72
2018-12-04T05:53:31.109Z,66.78
2018-12-04T05:56:01.113Z,66.82
2018-12-04T05:58:31.045Z,66.99
2018-12-04T06:01:00.987Z,66.90
2018-12-04T06:03:31.089Z,66.70
2018-12-04T06:06:01.035Z,66.71
2018-12-04T06:08:31.044Z,66.93
2018-12-04T06:11:01.000Z,66.51
2018-12-04T06:13:31.485Z,66.86
2018-12-04T06:16:01.401Z,67.07
2018-12-04T06:18:31.356Z,66.87
2018-12-04T06:21:01.293Z,67.09
2018-12-04T06:30:22.802Z,66.99
2018-12-04T06:35:50.806Z,66.72
2018-12-04T06:38:19.144Z,66.43
2018-12-04T06:40:47.467Z,66.13
2018-12-04T06:43:41.620Z,65.97
2018-12-04T06:46:09.981Z,65.94
2018-12-04T06:54:51.698Z,66.00
2018-12-04T06:57:26.519Z,66.15
2018-12-04T07:00:15.269Z,66.40
2018-12-04T07:02:43.597Z,66.58
2018-12-04T07:08:14.876Z,66.69
2018-12-04T07:10:48.955Z,66.59
2018-12-04T07:13:21.051Z,66.53
2018-12-04T07:15:55.837Z,66.34
2018-12-04T07:18:27.423Z,66.65
2018-12-04T07:20:59.359Z,66.77
2018-12-04T07:23:30.673Z,66.66
2018-12-04T07:26:02.832Z,66.45
2018-12-04T07:28:34.635Z,66.54
2018-12-04T07:31:06.798Z,66.36
2018-12-04T07:34:04.595Z,65.76
2018-12-04T07:36:36.054Z,65.78
2018-12-04T07:39:08.446Z,65.94
2018-12-04T07:41:43.133Z,66.08
2018-12-04T07:44:15.536Z,66.02
2018-12-04T07:46:47.487Z,66.01
2018-12-04T07:49:18.806Z,66.19
2018-12-04T07:51:50.617Z,65.72
2018-12-04T07:54:25.562Z,65.91
2018-12-04T07:56:57.600Z,65.97
2018-12-04T07:59:28.809Z,66.24
2018-12-04T08:02:07.749Z,66.55
2018-12-04T08:04:37.901Z,66.43
2018-12-04T08:07:07.804Z,66.20
2018-12-04T08:09:40.702Z,66.33
2018-12-04T08:12:10.863Z,66.42
2018-12-04T08:14:42.647Z,66.63
2018-12-04T08:17:14.543Z,66.77
2018-12-04T08:19:46.467Z,66.58
2018-12-04T08:22:16.225Z,66.59
2018-12-04T08:24:48.311Z,66.37
2018-12-04T08:27:23.010Z,66.29
2018-12-04T08:29:57.899Z,65.97
2018-12-04T08:32:32.832Z,66.11
2018-12-04T08:35:06.774Z,66.14
2018-12-04T08:37:38.058Z,66.02
2018-12-04T08:40:10.327Z,65.65
2018-12-04T08:42:42.017Z,66.12
2018-12-04T08:45:14.603Z,66.18
2018-12-04T08:47:46.339Z,65.51
2018-12-04T08:50:20.807Z,65.87
2018-12-04T08:52:52.182Z,65.12
2018-12-04T08:55:24.144Z,65.08
2018-12-04T08:58:02.868Z,64.70
2018-12-04T09:00:34.678Z,64.69
2018-12-04T09:03:04.835Z,64.48
2018-12-04T09:05:36.698Z,64.82
2018-12-04T09:08:11.373Z,64.47
2018-12-04T09:10:42.585Z,64.41
2018-12-04T09:13:14.548Z,64.00
2018-12-04T09:15:44.743Z,63.83
2018-12-04T09:18:16.726Z,64.03
2018-12-04T09:20:51.441Z,63.90
2018-12-04T09:23:23.708Z,63.73
2018-12-04T09:26:05.188Z,63.59
2018-12-04T09:28:40.433Z,63.74
2018-12-04T09:31:12.619Z,63.83
2018-12-04T09:33:42.709Z,63.27
2018-12-04T09:36:12.694Z,63.32
2018-12-04T09:38:47.560Z,63.34
2018-12-04T09:41:17.706Z,63.24
2018-12-04T09:43:52.590Z,63.40
2018-12-04T09:46:26.549Z,63.64
2018-12-04T09:48:54.954Z,63.64
2018-12-04T09:54:53.971Z,62.65
2018-12-04T10:00:27.489Z,62.25
2018-12-04T10:02:58.818Z,61.46
2018-12-04T10:05:46.512Z,61.89
2018-12-04T10:08:27.434Z,61.41
2018-12-04T10:10:55.760Z,61.12
2018-12-04T10:13:24.260Z,61.22
2018-12-04T10:15:52.545Z,61.44
2018-12-04T10:18:20.899Z,60.61
2018-12-04T10:20:55.759Z,61.32
2018-12-04T10:26:49.696Z,60.34
2018-12-04T10:31:56.181Z,60.20
2018-12-04T10:34:31.721Z,59.59
2018-12-04T10:43:27.441Z,59.52
2018-12-04T10:46:01.964Z,60.29
2018-12-04T10:48:33.726Z,59.52
2018-12-04T10:51:03.770Z,59.63
2018-12-04T10:57:00.909Z,58.70
2018-12-04T10:59:35.375Z,59.07
2018-12-04T11:05:10.120Z,59.60
2018-12-04T11:10:43.386Z,58.95
2018-12-04T11:13:21.995Z,59.43
2018-12-04T11:15:53.261Z,59.84
2018-12-04T11:18:27.965Z,59.31
2018-12-04T11:20:56.303Z,58.71
2018-12-04T11:23:30.477Z,58.38
2018-12-04T11:26:00.707Z,59.17
2018-12-04T11:28:29.073Z,58.94
2018-12-04T11:36:35.844Z,59.81
2018-12-04T11:39:10.463Z,60.13
2018-12-04T11:41:45.261Z,59.74
2018-12-04T11:44:33.269Z,56.83
2018-12-04T11:47:05.115Z,57.97
2018-12-04T11:49:35.515Z,56.57
2018-12-04T11:52:07.679Z,54.59
2018-12-04T11:54:39.242Z,53.34
2018-12-04T11:57:14.059Z,52.27
2018-12-04T11:59:46.364Z,52.03
2018-12-04T12:02:25.451Z,51.28
2018-12-04T12:04:59.944Z,51.39
2018-12-04T12:07:31.625Z,52.54
2018-12-04T12:10:06.448Z,53.00
2018-12-04T12:12:40.958Z,53.30
2018-12-04T12:15:19.738Z,52.80
2018-12-04T12:17:56.570Z,53.04
2018-12-04T12:20:28.302Z,52.68
2018-12-04T12:23:05.087Z,53.91
2018-12-04T12:25:36.571Z,53.36
2018-12-04T12:28:13.062Z,54.87
2018-12-04T12:30:47.271Z,53.96
2018-12-04T12:35:51.766Z,53.44
2018-12-04T12:38:30.755Z,52.85
2018-12-04T12:41:05.927Z,52.66
2018-12-04T12:43:40.341Z,53.03
2018-12-04T12:46:36.714Z,52.09
2018-12-04T12:49:18.099Z,52.88
2018-12-04T12:51:52.969Z,53.42
2018-12-04T12:54:27.813Z,53.09
2018-12-04T12:56:59.975Z,53.67
2018-12-04T12:59:31.711Z,54.24
2018-12-04T13:02:00.060Z,55.02
2018-12-04T13:04:35.604Z,55.30
2018-12-04T13:07:16.923Z,55.54
2018-12-04T13:09:55.107Z,55.12
2018-12-04T13:12:31.714Z,55.81
2018-12-04T13:15:07.884Z,56.15
2018-12-04T13:17:43.819Z,55.95
2018-12-04T13:20:16.757Z,56.25
2018-12-04T13:22:54.870Z,56.28
2018-12-04T13:31:30.818Z,55.08
2018-12-04T13:36:59.511Z,55.85
2018-12-04T13:39:33.576Z,55.76
2018-12-04T13:42:10.303Z,56.12
2018-12-04T13:44:44.338Z,56.21
2018-12-04T13:47:16.395Z,56.59
2018-12-04T13:49:48.243Z,56.29
2018-12-04T13:52:42.132Z,56.55
2018-12-04T13:58:15.688Z,56.40
2018-12-04T14:01:03.214Z,56.50
2018-12-04T14:03:37.513Z,57.70
2018-12-04T14:06:12.004Z,58.35
2018-12-04T14:11:50.962Z,59.19
2018-12-04T14:14:19.376Z,59.17
2018-12-04T14:17:02.777Z,59.81
2018-12-04T14:19:31.159Z,59.83
2018-12-04T14:21:59.629Z,59.57
2018-12-04T14:24:28.063Z,59.84
2018-12-04T14:26:56.476Z,60.11
2018-12-04T14:29:24.827Z,59.80
2018-12-04T14:34:56.732Z,60.61
2018-12-04T14:37:25.122Z,60.28
2018-12-04T14:39:53.455Z,60.32
2018-12-04T14:42:21.836Z,60.24
2018-12-04T14:44:50.186Z,60.84
2018-12-04T14:47:26.721Z,60.71
2018-12-04T14:53:08.118Z,60.66
2018-12-04T14:55:43.711Z,61.01
2018-12-04T14:58:37.902Z,60.84
2018-12-04T15:01:19.487Z,61.46
2018-12-04T15:04:00.933Z,60.96
2018-12-04T15:06:42.607Z,61.57
2018-12-04T15:09:25.201Z,61.64
2018-12-04T15:11:56.487Z,61.58
2018-12-04T15:14:28.094Z,61.69
2018-12-04T15:16:58.761Z,61.86
2018-12-04T15:19:30.245Z,61.79
2018-12-04T15:22:04.930Z,62.21
2018-12-04T15:24:36.728Z,62.05
2018-12-04T15:27:31.940Z,62.40
2018-12-04T15:30:00.414Z,62.22
2018-12-04T15:35:40.855Z,62.32
2018-12-04T15:38:09.283Z,62.86
2018-12-04T15:40:44.187Z,62.88
2018-12-04T15:43:14.160Z,63.10
2018-12-04T15:45:52.452Z,63.10
2018-12-04T15:48:26.651Z,62.80
2018-12-04T15:51:07.342Z,63.18
2018-12-04T15:53:41.664Z,63.27
2018-12-04T15:59:22.631Z,64.20
2018-12-04T16:01:54.684Z,64.46
2018-12-04T16:04:26.743Z,64.52
2018-12-04T16:10:06.447Z,64.25
2018-12-04T16:12:40.621Z,64.22
2018-12-04T16:15:12.965Z,64.38
2018-12-04T16:17:42.749Z,64.61
2018-12-04T16:20:16.031Z,64.69
2018-12-04T16:22:48.822Z,65.09
2018-12-04T16:25:20.702Z,64.99
2018-12-04T16:27:52.648Z,65.17
2018-12-04T16:30:24.625Z,65.15
2018-12-04T16:32:56.161Z,65.09
2018-12-04T16:35:54.172Z,65.22
2018-12-04T16:38:36.772Z,65.53
2018-12-04T16:41:32.352Z,65.37
2018-12-04T16:44:06.680Z,65.48
2018-12-04T16:46:43.363Z,65.19
2018-12-04T16:49:18.247Z,65.07
2018-12-04T16:51:46.615Z,65.08
2018-12-04T16:54:27.956Z,65.11
2018-12-04T16:57:24.376Z,65.60
2018-12-04T16:59:53.665Z,65.58
2018-12-04T17:02:34.756Z,65.62
2018-12-04T17:05:18.117Z,66.15
2018-12-04T17:07:54.013Z,65.89
2018-12-04T17:10:38.634Z,66.14
2018-12-04T17:16:07.375Z,66.24
2018-12-04T17:18:56.753Z,66.63
2018-12-04T17:21:28.111Z,66.23
2018-12-04T17:24:15.738Z,66.59
2018-12-04T17:30:06.552Z,66.82
2018-12-04T17:32:35.016Z,67.11
2018-12-04T17:35:03.329Z,67.59
2018-12-04T17:37:59.506Z,67.23
2018-12-04T17:40:38.284Z,67.38
2018-12-04T17:43:13.301Z,67.26
2018-12-04T17:45:41.666Z,67.00
2018-12-04T17:48:09.983Z,66.87
2018-12-04T17:50:55.700Z,67.17
2018-12-04T17:53:24.015Z,67.02
2018-12-04T17:55:52.388Z,67.03
2018-12-04T17:58:20.747Z,66.83
2018-12-04T18:01:06.270Z,67.11
2018-12-04T18:03:34.602Z,67.20
2018-12-04T18:06:09.016Z,67.15
2018-12-04T18:09:00.693Z,66.96
2018-12-04T18:11:56.431Z,66.91
2018-12-04T18:14:24.850Z,67.14
2018-12-04T18:17:13.034Z,67.33
2018-12-04T18:22:47.775Z,66.96
2018-12-04T18:25:16.092Z,67.17
2018-12-04T18:27:44.488Z,66.95
2018-12-04T18:30:12.885Z,67.00
2018-12-04T18:33:00.202Z,66.89
2018-12-04T18:38:31.334Z,67.31
2018-12-04T18:40:59.677Z,67.30
2018-12-04T18:43:28.026Z,67.33
2018-12-04T18:45:56.383Z,67.53
2018-12-04T18:48:24.697Z,67.90
2018-12-04T18:50:53.017Z,67.94
2018-12-04T18:53:21.374Z,67.98
2018-12-04T18:55:49.673Z,67.61
2018-12-04T18:58:18.028Z,67.71
2018-12-04T19:00:46.448Z,67.44
2018-12-04T19:03:14.768Z,67.70
2018-12-04T19:05:43.149Z,67.49
2018-12-04T19:08:11.438Z,67.96
2018-12-04T19:10:39.789Z,68.01
2018-12-04T19:13:08.145Z,68.03
2018-12-04T19:15:36.596Z,68.01
2018-12-04T19:18:04.983Z,67.89
2018-12-04T19:20:33.286Z,67.80
2018-12-04T19:23:01.635Z,68.00
2018-12-04T19:25:29.962Z,67.74
2018-12-04T19:27:59.582Z,67.78
2018-12-04T19:30:28.042Z,67.90
2018-12-04T19:32:56.480Z,67.83
2018-12-04T19:35:24.844Z,68.49
2018-12-04T19:37:59.804Z,68.27
2018-12-04T19:40:53.960Z,68.58
2018-12-04T19:43:22.275Z,68.40
2018-12-04T19:46:04.970Z,68.15
2018-12-04T19:48:41.005Z,67.85
2018-12-04T19:51:09.394Z,68.39
2018-12-04T19:56:41.708Z,68.25
2018-12-04T19:59:10.077Z,68.23
2018-12-04T20:01:38.418Z,68.48
2018-12-04T20:04:09.773Z,68.61
2018-12-04T20:06:38.117Z,68.13
2018-12-04T20:09:07.784Z,67.81
2018-12-04T20:11:36.215Z,68.13
2018-12-04T20:14:04.676Z,68.28
2018-12-04T20:16:33.001Z,68.38
2018-12-04T20:19:01.395Z,68.62
2018-12-04T20:21:29.720Z,68.63
2018-12-04T20:23:58.089Z,68.48
2018-12-04T20:26:26.459Z,68.56
2018-12-04T20:28:57.840Z,68.93
2018-12-04T20:31:26.161Z,68.06
2018-12-04T20:33:54.587Z,68.11
2018-12-04T20:36:22.964Z,68.23
2018-12-04T20:38:51.655Z,68.65
2018-12-04T20:41:19.994Z,68.94
2018-12-04T20:43:48.359Z,69.49
2018-12-04T20:46:16.699Z,69.41
2018-12-04T20:48:45.077Z,69.19
2018-12-04T20:51:13.506Z,69.30
2018-12-04T20:53:41.829Z,69.02
2018-12-04T20:56:10.153Z,68.70
2018-12-04T20:58:38.516Z,68.59
2018-12-04T21:01:06.970Z,68.76
2018-12-04T21:03:35.330Z,68.82
2018-12-04T21:06:03.693Z,68.25
2018-12-04T21:08:31.998Z,68.19
2018-12-04T21:11:00.313Z,68.53
2018-12-04T21:13:28.677Z,68.71
2018-12-04T21:15:57.043Z,68.48
2018-12-04T21:18:25.405Z,68.87
2018-12-04T21:20:53.735Z,68.72
2018-12-04T21:23:22.106Z,68.58
2018-12-04T21:25:50.398Z,68.49
2018-12-04T21:28:22.908Z,68.77
2018-12-04T21:30:56.808Z,68.99
2018-12-04T21:33:30.604Z,68.54
2018-12-04T21:36:04.339Z,68.89
2018-12-04T21:38:59.493Z,68.73
2018-12-04T21:41:33.229Z,68.52
2018-12-04T21:44:06.987Z,68.63
2018-12-04T21:49:40.645Z,68.55
2018-12-04T21:52:08.951Z,69.04
2018-12-04T21:54:37.334Z,69.12
2018-12-04T21:57:15.598Z,68.91
2018-12-04T22:02:47.682Z,69.12
2018-12-04T22:05:16.077Z,69.18
2018-12-04T22:07:44.427Z,69.35
2018-12-04T22:10:38.903Z,69.42
2018-12-04T22:13:07.266Z,69.30
2018-12-04T22:15:35.615Z,69.36
2018-12-04T22:18:04.049Z,69.12
2018-12-04T22:20:32.491Z,69.82
2018-12-04T22:23:00.813Z,69.24
2018-12-04T22:25:29.151Z,69.49
2018-12-04T22:27:57.568Z,69.46
2018-12-04T22:30:25.890Z,69.28
2018-12-04T22:32:54.242Z,68.90
2018-12-04T22:35:22.557Z,69.35
2018-12-04T22:37:50.897Z,69.46
2018-12-04T22:40:19.224Z,69.22
2018-12-04T22:42:47.558Z,69.13
2018-12-04T22:45:30.494Z,68.80
2018-12-04T22:47:58.827Z,68.91
2018-12-04T22:50:27.169Z,69.05
2018-12-04T22:52:55.487Z,68.96
2018-12-04T22:55:23.851Z,68.99
2018-12-04T22:57:52.209Z,69.37
2018-12-04T23:03:11.812Z,69.62
2018-12-04T23:05:40.256Z,69.58
2018-12-04T23:08:08.590Z,69.59
2018-12-04T23:10:36.910Z,69.81
2018-12-04T23:13:05.347Z,69.94
2018-12-04T23:15:33.685Z,69.84
2018-12-04T23:18:01.992Z,69.62
2018-12-04T23:20:30.337Z,69.30
2018-12-04T23:22:58.653Z,69.58
2018-12-04T23:25:27.005Z,69.46
2018-12-04T23:27:55.327Z,69.62
2018-12-04T23:30:23.694Z,69.70
2018-12-04T23:32:52.047Z,69.98
2018-12-04T23:35:20.422Z,69.33
2018-12-04T23:37:48.748Z,69.69
2018-12-04T23:40:17.108Z,70.29
2018-12-04T23:42:45.437Z,69.89
2018-12-04T23:45:13.855Z,69.72
2018-12-04T23:47:42.240Z,70.30
2018-12-04T23:50:10.630Z,69.51
2018-12-04T23:52:38.962Z,69.53
2018-12-04T23:58:09.969Z,69.48
